createdAt,value
2023-04-16T00:02:08.328Z,96289.33
2023-04-16T00:04:35.320Z,96289.46
2023-04-16T00:07:01.969Z,96292.27
2023-04-16T00:09:28.708Z,96294.35
2023-04-16T00:11:55.448Z,96294.77
2023-04-16T00:14:22.059Z,96291.70
2023-04-16T00:16:48.750Z,96290.70
2023-04-16T00:19:15.568Z,96294.04
2023-04-16T00:21:42.214Z,96295.55
2023-04-16T00:24:09.251Z,96296.41
2023-04-16T00:26:35.997Z,96290.46
2023-04-16T00:29:02.634Z,96291.72
2023-04-16T00:31:30.697Z,96292.52
2023-04-16T00:33:57.652Z,96294.08
2023-04-16T00:36:25.003Z,96299.79
2023-04-16T00:38:52.154Z,96301.31
2023-04-16T00:41:19.107Z,96302.05
2023-04-16T00:43:46.053Z,96301.15
2023-04-16T00:46:12.847Z,96305.23
2023-04-16T00:48:39.991Z,96308.55
2023-04-16T00:51:07.285Z,96308.66
2023-04-16T00:53:34.068Z,96310.18
2023-04-16T00:56:02.649Z,96309.95
2023-04-16T00:58:30.373Z,96306.34
2023-04-16T01:00:57.236Z,96303.23
2023-04-16T01:03:24.265Z,96302.95
2023-04-16T01:08:22.970Z,96308.35
2023-04-16T01:13:21.219Z,96310.42
2023-04-16T01:15:47.928Z,96313.92
2023-04-16T01:18:15.767Z,96314.36
2023-04-16T01:20:43.025Z,96312.68
2023-04-16T01:23:10.990Z,96315.95
2023-04-16T01:25:38.470Z,96309.86
2023-04-16T01:28:06.421Z,96306.71
2023-04-16T01:30:33.165Z,96306.70
2023-04-16T01:33:11.247Z,96310.15
2023-04-16T01:35:38.539Z,96308.82
2023-04-16T01:38:05.464Z,96305.53
2023-04-16T01:40:32.103Z,96296.61
2023-04-16T01:42:59.052Z,96301.35
2023-04-16T01:47:57.392Z,96300.64
2023-04-16T01:50:24.297Z,96305.62
2023-04-16T01:52:51.237Z,96308.58
2023-04-16T01:55:17.872Z,96303.38
2023-04-16T01:57:44.605Z,96303.27
2023-04-16T02:00:11.559Z,96302.85
2023-04-16T02:02:48.736Z,96298.48
2023-04-16T02:05:20.407Z,96295.00
2023-04-16T02:07:47.553Z,96295.27
2023-04-16T02:10:14.503Z,96291.99
2023-04-16T02:12:41.099Z,96292.63
2023-04-16T02:15:08.717Z,96295.42
2023-04-16T02:17:35.751Z,96300.33
2023-04-16T02:20:11.889Z,96303.82
2023-04-16T02:22:43.461Z,96303.34
2023-04-16T02:25:11.222Z,96304.02
2023-04-16T02:27:38.099Z,96302.73
2023-04-16T02:30:17.192Z,96305.14
2023-04-16T02:32:44.142Z,96303.40
2023-04-16T02:35:10.765Z,96299.71
2023-04-16T02:37:40.288Z,96299.91
2023-04-16T02:40:07.942Z,96302.34
2023-04-16T02:42:34.779Z,96301.87
2023-04-16T02:45:01.539Z,96303.21
2023-04-16T02:47:28.971Z,96300.23
2023-04-16T02:49:55.932Z,96303.63
2023-04-16T02:52:22.572Z,96307.36
2023-04-16T02:54:49.190Z,96310.52
2023-04-16T02:57:15.940Z,96312.16
2023-04-16T02:59:42.588Z,96309.96
2023-04-16T03:02:09.267Z,96307.23
2023-04-16T03:04:36.006Z,96305.55
2023-04-16T03:07:02.658Z,96306.08
2023-04-16T03:09:29.181Z,96310.80
2023-04-16T03:11:56.466Z,96309.33
2023-04-16T03:14:23.056Z,96306.55
2023-04-16T03:16:49.919Z,96310.08
2023-04-16T03:19:16.609Z,96311.39
2023-04-16T03:21:43.552Z,96310.04
2023-04-16T03:24:10.296Z,96313.29
2023-04-16T03:26:37.037Z,96315.16
2023-04-16T03:29:04.288Z,96313.61
2023-04-16T03:31:31.414Z,96316.58
2023-04-16T03:33:58.798Z,96314.00
2023-04-16T03:36:26.582Z,96315.95
2023-04-16T03:38:53.393Z,96319.60
2023-04-16T03:41:20.240Z,96320.95
2023-04-16T03:43:47.004Z,96325.28
2023-04-16T03:46:13.824Z,96330.65
2023-04-16T03:48:40.578Z,96332.03
2023-04-16T03:51:07.642Z,96331.23
2023-04-16T03:53:34.460Z,96331.19
2023-04-16T03:56:01.099Z,96333.38
2023-04-16T03:58:27.845Z,96332.94
2023-04-16T04:00:55.780Z,96333.02
2023-04-16T04:03:23.055Z,96334.09
2023-04-16T04:05:49.895Z,96335.97
2023-04-16T04:08:22.477Z,96340.92
2023-04-16T04:10:50.757Z,96346.90
2023-04-16T04:13:18.932Z,96350.33
2023-04-16T04:15:45.572Z,96346.52
2023-04-16T04:18:12.415Z,96347.28
2023-04-16T04:20:40.796Z,96351.10
2023-04-16T04:23:07.842Z,96350.64
2023-04-16T04:25:35.081Z,96348.05
2023-04-16T04:28:01.591Z,96351.13
2023-04-16T04:30:28.771Z,96355.30
2023-04-16T04:32:55.359Z,96357.86
2023-04-16T04:35:22.150Z,96355.44
2023-04-16T04:37:48.809Z,96353.70
2023-04-16T04:40:17.991Z,96356.08
2023-04-16T04:42:45.036Z,96362.02
2023-04-16T04:45:12.096Z,96365.78
2023-04-16T04:47:39.081Z,96363.63
2023-04-16T04:50:06.613Z,96361.48
2023-04-16T04:52:34.251Z,96365.07
2023-04-16T04:55:01.306Z,96367.37
2023-04-16T04:57:28.045Z,96367.92
2023-04-16T04:59:54.994Z,96366.63
2023-04-16T05:02:21.968Z,96366.21
2023-04-16T05:04:48.812Z,96367.45
2023-04-16T05:07:15.825Z,96369.11
2023-04-16T05:09:42.777Z,96371.21
2023-04-16T05:12:09.510Z,96370.61
2023-04-16T05:14:36.078Z,96372.93
2023-04-16T05:17:02.668Z,96372.93
2023-04-16T05:19:29.673Z,96370.71
2023-04-16T05:21:56.377Z,96372.65
2023-04-16T05:24:23.369Z,96377.59
2023-04-16T05:26:50.087Z,96383.96
2023-04-16T05:29:16.816Z,96380.17
2023-04-16T05:31:43.432Z,96380.20
2023-04-16T05:34:10.289Z,96378.99
2023-04-16T05:36:36.783Z,96384.96
2023-04-16T05:39:03.446Z,96384.02
2023-04-16T05:41:30.087Z,96377.24
2023-04-16T05:43:57.273Z,96374.32
2023-04-16T05:46:24.223Z,96376.60
2023-04-16T05:48:50.920Z,96377.73
2023-04-16T05:51:17.573Z,96372.39
2023-04-16T05:53:44.306Z,96370.38
2023-04-16T05:56:11.356Z,96374.70
2023-04-16T05:58:38.197Z,96378.55
2023-04-16T06:01:05.144Z,96377.73
2023-04-16T06:03:31.839Z,96380.05
2023-04-16T06:05:58.508Z,96383.41
2023-04-16T06:08:25.277Z,96380.91
2023-04-16T06:10:51.890Z,96378.18
2023-04-16T06:13:18.639Z,96382.95
2023-04-16T06:15:45.233Z,96380.98
2023-04-16T06:18:12.258Z,96378.53
2023-04-16T06:20:39.133Z,96376.81
2023-04-16T06:23:05.610Z,96376.99
2023-04-16T06:25:32.218Z,96379.91
2023-04-16T06:27:58.882Z,96382.97
2023-04-16T06:30:25.626Z,96384.39
2023-04-16T06:32:52.590Z,96381.69
2023-04-16T06:35:19.703Z,96383.16
2023-04-16T06:37:46.546Z,96384.02
2023-04-16T06:40:13.314Z,96381.36
2023-04-16T06:42:41.202Z,96379.48
2023-04-16T06:45:08.923Z,96378.20
2023-04-16T06:47:35.739Z,96378.65
2023-04-16T06:50:02.407Z,96377.86
2023-04-16T06:52:28.979Z,96379.37
2023-04-16T06:54:55.962Z,96374.80
2023-04-16T06:57:23.858Z,96379.75
2023-04-16T06:59:50.699Z,96380.58
2023-04-16T07:02:17.724Z,96376.96
2023-04-16T07:04:44.596Z,96376.39
2023-04-16T07:07:11.357Z,96374.23
2023-04-16T07:09:38.289Z,96372.54
2023-04-16T07:12:06.446Z,96368.95
2023-04-16T07:14:33.195Z,96369.08
2023-04-16T07:16:59.832Z,96373.39
2023-04-16T07:19:30.155Z,96375.38
2023-04-16T07:21:56.885Z,96376.82
2023-04-16T07:24:23.539Z,96373.81
2023-04-16T07:26:50.274Z,96376.42
2023-04-16T07:29:17.222Z,96374.78
2023-04-16T07:31:44.610Z,96375.39
2023-04-16T07:34:11.440Z,96376.81
2023-04-16T07:36:38.273Z,96377.85
2023-04-16T07:39:05.836Z,96374.34
2023-04-16T07:41:32.824Z,96373.76
2023-04-16T07:43:59.337Z,96375.27
2023-04-16T07:46:30.503Z,96373.29
2023-04-16T07:49:03.018Z,96372.55
2023-04-16T07:51:30.891Z,96368.86
2023-04-16T07:53:57.634Z,96369.46
2023-04-16T07:56:24.265Z,96364.52
2023-04-16T07:58:51.117Z,96364.13
2023-04-16T08:01:17.807Z,96360.89
2023-04-16T08:03:45.282Z,96358.36
2023-04-16T08:06:12.152Z,96360.30
2023-04-16T08:08:38.811Z,96361.41
2023-04-16T08:11:05.758Z,96354.77
2023-04-16T08:13:33.597Z,96360.48
2023-04-16T08:16:01.305Z,96356.23
2023-04-16T08:18:27.907Z,96353.55
2023-04-16T08:20:54.750Z,96351.63
2023-04-16T08:23:21.393Z,96350.73
2023-04-16T08:25:47.864Z,96348.88
2023-04-16T08:28:15.107Z,96348.30
2023-04-16T08:30:41.721Z,96347.66
2023-04-16T08:33:08.634Z,96344.30
2023-04-16T08:35:35.408Z,96343.44
2023-04-16T08:38:04.285Z,96344.83
2023-04-16T08:40:31.045Z,96344.64
2023-04-16T08:42:58.575Z,96350.36
2023-04-16T08:45:26.251Z,96346.70
2023-04-16T08:47:53.036Z,96348.71
2023-04-16T08:50:24.130Z,96349.15
2023-04-16T08:52:59.990Z,96347.70
2023-04-16T08:55:37.484Z,96349.31
2023-04-16T09:03:28.606Z,96350.30
2023-04-16T09:05:56.878Z,96351.50
2023-04-16T09:08:23.535Z,96349.20
2023-04-16T09:10:50.284Z,96351.08
2023-04-16T09:13:19.774Z,96350.60
2023-04-16T09:15:46.287Z,96348.15
2023-04-16T09:25:48.445Z,96341.93
2023-04-16T09:28:44.577Z,96341.75
2023-04-16T09:31:15.428Z,96342.27
2023-04-16T09:33:42.967Z,96342.35
2023-04-16T09:36:10.118Z,96341.81
2023-04-16T09:38:50.694Z,96346.27
2023-04-16T09:41:17.536Z,96341.27
2023-04-16T09:43:58.221Z,96338.70
2023-04-16T09:46:31.379Z,96335.60
2023-04-16T09:48:58.132Z,96334.52
2023-04-16T09:51:27.939Z,96331.35
2023-04-16T09:53:56.509Z,96328.33
2023-04-16T09:56:25.331Z,96327.11
2023-04-16T09:58:57.536Z,96322.95
2023-04-16T10:01:24.966Z,96322.05
2023-04-16T10:03:53.301Z,96324.17
2023-04-16T10:14:00.855Z,96311.71
2023-04-16T10:16:28.846Z,96307.81
2023-04-16T10:18:56.108Z,96306.48
2023-04-16T10:21:23.443Z,96305.68
2023-04-16T10:23:51.005Z,96305.52
2023-04-16T10:26:17.639Z,96305.70
2023-04-16T10:31:16.493Z,96299.93
2023-04-16T10:36:16.894Z,96300.66
2023-04-16T10:38:47.623Z,96300.76
2023-04-16T10:41:14.468Z,96300.30
2023-04-16T10:43:45.712Z,96300.63
2023-04-16T10:46:26.234Z,96297.40
2023-04-16T10:48:54.047Z,96291.52
2023-04-16T10:51:33.385Z,96291.52
2023-04-16T10:54:13.980Z,96290.84
2023-04-16T10:56:40.538Z,96291.21
2023-04-16T10:59:08.371Z,96292.15
2023-04-16T11:01:45.829Z,96291.05
2023-04-16T11:04:21.935Z,96284.48
2023-04-16T11:07:05.132Z,96282.46
2023-04-16T11:09:47.585Z,96283.10
2023-04-16T11:12:18.270Z,96285.63
2023-04-16T11:14:47.256Z,96283.31
2023-04-16T11:17:13.899Z,96283.50
2023-04-16T11:19:41.956Z,96281.05
2023-04-16T11:22:11.422Z,96277.67
2023-04-16T11:24:39.910Z,96278.48
2023-04-16T11:27:07.122Z,96278.55
2023-04-16T11:29:33.927Z,96279.23
2023-04-16T11:32:01.006Z,96274.36
2023-04-16T11:34:27.581Z,96273.61
2023-04-16T11:36:54.377Z,96271.42
2023-04-16T11:39:21.007Z,96267.65
2023-04-16T11:41:48.980Z,96264.27
2023-04-16T11:46:57.464Z,96257.55
2023-04-16T11:49:30.539Z,96255.66
2023-04-16T11:51:57.356Z,96252.41
2023-04-16T11:54:24.381Z,96247.85
2023-04-16T11:56:52.381Z,96247.48
2023-04-16T11:59:20.737Z,96239.23
2023-04-16T12:01:48.562Z,96234.64
2023-04-16T12:04:16.094Z,96231.98
2023-04-16T12:07:20.076Z,96233.70
2023-04-16T12:09:46.718Z,96232.46
2023-04-16T12:12:39.773Z,96228.21
2023-04-16T12:15:07.636Z,96219.98
2023-04-16T12:17:35.138Z,96220.48
2023-04-16T12:20:12.988Z,96221.44
2023-04-16T12:22:43.344Z,96219.04
2023-04-16T12:25:14.877Z,96215.05
2023-04-16T12:27:53.048Z,96212.57
2023-04-16T12:30:24.554Z,96209.70
2023-04-16T12:32:53.615Z,96209.37
2023-04-16T12:35:33.498Z,96210.45
2023-04-16T12:38:00.530Z,96208.83
2023-04-16T12:40:27.393Z,96204.02
2023-04-16T12:42:54.366Z,96199.65
2023-04-16T12:45:21.392Z,96197.83
2023-04-16T12:47:49.891Z,96197.25
2023-04-16T12:50:17.121Z,96190.95
2023-04-16T12:52:43.846Z,96185.35
2023-04-16T12:55:10.481Z,96183.02
2023-04-16T12:57:37.111Z,96181.58
2023-04-16T13:00:05.999Z,96179.85
2023-04-16T13:02:32.936Z,96173.55
2023-04-16T13:04:59.834Z,96176.05
2023-04-16T13:07:27.664Z,96176.12
2023-04-16T13:09:54.408Z,96170.81
2023-04-16T13:12:21.037Z,96168.14
2023-04-16T13:14:47.785Z,96165.87
2023-04-16T13:17:14.795Z,96161.85
2023-04-16T13:19:41.360Z,96165.55
2023-04-16T13:22:08.557Z,96165.30
2023-04-16T13:24:35.371Z,96165.20
2023-04-16T13:27:01.961Z,96166.98
2023-04-16T13:29:29.462Z,96169.66
2023-04-16T13:31:56.094Z,96170.15
2023-04-16T13:34:22.961Z,96173.04
2023-04-16T13:36:49.579Z,96178.65
2023-04-16T13:39:17.033Z,96183.88
2023-04-16T13:41:43.786Z,96192.86
2023-04-16T13:44:10.521Z,96191.95
2023-04-16T13:46:37.288Z,96189.27
2023-04-16T13:49:04.110Z,96188.17
2023-04-16T13:51:31.554Z,96186.80
2023-04-16T13:53:58.504Z,96186.52
2023-04-16T13:56:25.536Z,96185.56
2023-04-16T13:58:52.191Z,96196.34
2023-04-16T14:01:18.984Z,96198.66
2023-04-16T14:03:46.142Z,96200.17
2023-04-16T14:06:14.572Z,96199.59
2023-04-16T14:08:41.515Z,96196.34
2023-04-16T14:11:08.653Z,96193.89
2023-04-16T14:13:35.188Z,96194.98
2023-04-16T14:16:02.337Z,96193.46
2023-04-16T14:18:29.384Z,96195.08
2023-04-16T14:20:56.327Z,96199.67
2023-04-16T14:23:23.167Z,96204.43
2023-04-16T14:25:49.913Z,96211.92
2023-04-16T14:28:16.644Z,96209.21
2023-04-16T14:30:43.213Z,96203.04
2023-04-16T14:33:10.028Z,96206.06
2023-04-16T14:35:36.880Z,96212.87
2023-04-16T14:38:03.740Z,96216.35
2023-04-16T14:40:30.765Z,96213.40
2023-04-16T14:42:57.517Z,96203.61
2023-04-16T14:45:28.572Z,96204.55
2023-04-16T14:47:55.591Z,96205.01
2023-04-16T14:50:22.841Z,96205.45
2023-04-16T14:52:50.318Z,96202.83
2023-04-16T14:55:16.954Z,96203.16
2023-04-16T14:57:43.552Z,96201.24
2023-04-16T15:00:11.461Z,96204.89
2023-04-16T15:02:38.320Z,96204.55
2023-04-16T15:05:09.232Z,96201.27
2023-04-16T15:07:36.485Z,96203.05
2023-04-16T15:10:03.914Z,96202.39
2023-04-16T15:12:30.787Z,96200.14
2023-04-16T15:14:59.267Z,96201.36
2023-04-16T15:17:26.033Z,96203.17
2023-04-16T15:19:53.057Z,96201.27
2023-04-16T15:22:19.899Z,96199.52
2023-04-16T15:24:46.660Z,96199.15
2023-04-16T15:27:14.338Z,96201.22
2023-04-16T15:29:41.138Z,96205.40
2023-04-16T15:32:07.985Z,96219.09
2023-04-16T15:34:34.887Z,96225.80
2023-04-16T15:37:01.878Z,96230.30
2023-04-16T15:39:28.530Z,96239.16
2023-04-16T15:42:01.271Z,96243.21
2023-04-16T15:44:30.443Z,96229.02
2023-04-16T15:46:57.107Z,96223.71
2023-04-16T15:49:24.286Z,96225.45
2023-04-16T15:51:51.745Z,96228.70
2023-04-16T15:54:18.595Z,96226.20
2023-04-16T15:56:45.988Z,96221.52
2023-04-16T15:59:13.041Z,96223.69
2023-04-16T16:01:40.237Z,96223.39
2023-04-16T16:04:07.282Z,96219.96
2023-04-16T16:06:34.755Z,96218.64
2023-04-16T16:09:01.497Z,96219.99
2023-04-16T16:11:28.222Z,96219.73
2023-04-16T16:13:54.974Z,96223.27
2023-04-16T16:16:21.534Z,96218.22
2023-04-16T16:18:48.288Z,96213.65
2023-04-16T16:21:14.996Z,96212.27
2023-04-16T16:23:41.626Z,96215.41
2023-04-16T16:26:08.677Z,96212.13
2023-04-16T16:28:38.227Z,96211.67
2023-04-16T16:31:05.480Z,96213.13
2023-04-16T16:33:32.581Z,96214.79
2023-04-16T16:35:59.155Z,96215.08
2023-04-16T16:38:25.760Z,96213.96
2023-04-16T16:40:52.502Z,96207.66
2023-04-16T16:43:19.748Z,96207.15
2023-04-16T16:45:46.685Z,96209.09
2023-04-16T16:48:13.320Z,96215.46
2023-04-16T16:50:39.959Z,96213.21
2023-04-16T16:53:06.920Z,96211.77
2023-04-16T16:55:34.887Z,96212.43
2023-04-16T16:58:01.633Z,96214.16
2023-04-16T17:00:28.360Z,96214.85
2023-04-16T17:02:55.228Z,96215.84
2023-04-16T17:05:22.152Z,96213.26
2023-04-16T17:07:48.694Z,96216.98
2023-04-16T17:10:19.628Z,96224.22
2023-04-16T17:12:47.775Z,96231.33
2023-04-16T17:15:14.945Z,96238.29
2023-04-16T17:17:42.082Z,96240.27
2023-04-16T17:20:10.384Z,96241.94
2023-04-16T17:22:37.745Z,96243.14
2023-04-16T17:25:06.339Z,96248.66
2023-04-16T17:27:33.777Z,96254.16
2023-04-16T17:30:01.353Z,96256.23
2023-04-16T17:32:28.849Z,96259.41
2023-04-16T17:34:55.745Z,96261.46
2023-04-16T17:37:22.892Z,96264.48
2023-04-16T17:39:50.497Z,96264.52
2023-04-16T17:42:17.090Z,96265.58
2023-04-16T17:44:43.888Z,96266.62
2023-04-16T17:47:10.776Z,96268.48
2023-04-16T17:49:37.401Z,96272.86
2023-04-16T17:52:04.476Z,96275.84
2023-04-16T17:54:31.405Z,96272.88
2023-04-16T17:56:58.352Z,96269.94
2023-04-16T18:01:56.808Z,96278.48
2023-04-16T18:04:23.678Z,96279.06
2023-04-16T18:06:50.451Z,96281.50
2023-04-16T18:09:18.810Z,96281.82
2023-04-16T18:11:45.377Z,96284.11
2023-04-16T18:14:16.076Z,96288.08
2023-04-16T18:19:15.926Z,96290.95
2023-04-16T18:21:42.653Z,96290.33
2023-04-16T18:24:09.652Z,96287.58
2023-04-16T18:26:36.571Z,96293.74
2023-04-16T18:29:03.986Z,96293.64
2023-04-16T18:31:30.801Z,96296.20
2023-04-16T18:33:58.487Z,96297.89
2023-04-16T18:36:26.114Z,96301.17
2023-04-16T18:39:01.644Z,96297.34
2023-04-16T18:41:29.352Z,96296.71
2023-04-16T18:43:56.927Z,96304.95
2023-04-16T18:46:24.731Z,96303.62
2023-04-16T18:48:51.538Z,96304.05
2023-04-16T18:51:18.381Z,96305.95
2023-04-16T18:53:45.547Z,96310.34
2023-04-16T18:56:12.486Z,96309.73
2023-04-16T18:58:39.272Z,96311.35
2023-04-16T19:01:10.196Z,96314.52
2023-04-16T19:03:37.288Z,96316.59
2023-04-16T19:06:04.354Z,96314.70
2023-04-16T19:08:31.088Z,96312.96
2023-04-16T19:10:57.632Z,96312.53
2023-04-16T19:13:24.269Z,96312.11
2023-04-16T19:15:50.931Z,96316.15
2023-04-16T19:18:17.872Z,96315.69
2023-04-16T19:20:44.600Z,96315.23
2023-04-16T19:23:12.669Z,96310.56
2023-04-16T19:25:39.516Z,96317.63
2023-04-16T19:28:06.256Z,96312.52
2023-04-16T19:30:32.891Z,96314.76
2023-04-16T19:32:59.687Z,96317.17
2023-04-16T19:35:26.844Z,96314.22
2023-04-16T19:37:55.839Z,96313.73
2023-04-16T19:40:22.712Z,96313.79
2023-04-16T19:42:49.461Z,96306.83
2023-04-16T19:45:17.025Z,96301.86
2023-04-16T19:47:44.236Z,96303.77
2023-04-16T19:50:11.423Z,96305.65
2023-04-16T19:52:38.313Z,96305.57
2023-04-16T19:55:06.566Z,96304.08
2023-04-16T19:57:33.390Z,96303.77
2023-04-16T20:00:00.416Z,96307.82
2023-04-16T20:02:27.507Z,96306.23
2023-04-16T20:04:54.537Z,96307.22
2023-04-16T20:07:21.231Z,96304.81
2023-04-16T20:09:47.809Z,96301.86
2023-04-16T20:12:15.056Z,96304.83
2023-04-16T20:14:43.197Z,96298.44
2023-04-16T20:17:10.150Z,96295.90
2023-04-16T20:19:40.503Z,96300.08
2023-04-16T20:22:07.233Z,96300.89
2023-04-16T20:24:33.886Z,96299.57
2023-04-16T20:27:01.228Z,96300.68
2023-04-16T20:29:28.184Z,96294.50
2023-04-16T20:31:55.139Z,96294.91
2023-04-16T20:34:21.675Z,96294.15
2023-04-16T20:36:48.287Z,96292.06
2023-04-16T20:39:19.661Z,96291.23
2023-04-16T20:41:55.909Z,96291.16
2023-04-16T20:44:32.426Z,96295.56
2023-04-16T20:46:59.525Z,96294.69
2023-04-16T20:49:26.276Z,96297.64
2023-04-16T20:51:53.014Z,96298.27
2023-04-16T20:54:19.987Z,96298.89
2023-04-16T20:56:46.571Z,96297.92
2023-04-16T20:59:13.334Z,96297.96
2023-04-16T21:01:40.340Z,96298.33
2023-04-16T21:04:07.351Z,96302.92
2023-04-16T21:06:37.856Z,96300.52
2023-04-16T21:09:05.537Z,96296.11
2023-04-16T21:11:34.201Z,96293.77
2023-04-16T21:14:01.918Z,96292.36
2023-04-16T21:16:29.025Z,96287.79
2023-04-16T21:18:56.161Z,96289.27
2023-04-16T21:21:23.115Z,96289.34
2023-04-16T21:23:50.095Z,96285.66
2023-04-16T21:26:16.807Z,96285.16
2023-04-16T21:28:43.761Z,96286.02
2023-04-16T21:31:10.685Z,96284.69
2023-04-16T21:33:37.653Z,96284.70
2023-04-16T21:36:04.591Z,96285.00
2023-04-16T21:38:31.130Z,96281.80
2023-04-16T21:40:57.749Z,96282.09
2023-04-16T21:43:26.357Z,96278.56
2023-04-16T21:45:53.067Z,96278.44
2023-04-16T21:48:20.451Z,96277.42
2023-04-16T21:50:47.183Z,96273.98
2023-04-16T21:53:13.750Z,96274.62
2023-04-16T21:55:41.279Z,96274.05
2023-04-16T21:58:08.023Z,96275.56
2023-04-16T22:00:34.794Z,96273.16
2023-04-16T22:03:03.795Z,96272.48
2023-04-16T22:05:32.637Z,96273.42
2023-04-16T22:07:59.515Z,96273.14
2023-04-16T22:10:26.324Z,96270.75
2023-04-16T22:12:54.387Z,96273.27
2023-04-16T22:20:24.445Z,96270.50
2023-04-16T22:22:57.071Z,96273.27
2023-04-16T22:25:24.183Z,96272.27
2023-04-16T22:27:50.720Z,96272.49
2023-04-16T22:30:17.552Z,96268.27
2023-04-16T22:32:44.404Z,96268.30
2023-04-16T22:35:11.974Z,96267.87
2023-04-16T22:40:11.170Z,96264.68
2023-04-16T22:42:37.726Z,96263.71
2023-04-16T22:45:05.485Z,96263.18
2023-04-16T22:47:32.356Z,96261.84
2023-04-16T22:49:59.881Z,96259.11
2023-04-16T22:52:27.029Z,96256.50
2023-04-16T22:54:53.758Z,96258.19
2023-04-16T22:57:24.191Z,96256.79
2023-04-16T23:04:54.893Z,96253.77
2023-04-16T23:07:21.700Z,96252.02
2023-04-16T23:09:48.450Z,96251.36
2023-04-16T23:12:15.098Z,96249.85
2023-04-16T23:14:45.149Z,96247.08
2023-04-16T23:17:13.072Z,96245.98
2023-04-16T23:19:39.705Z,96248.05
2023-04-16T23:22:06.254Z,96244.23
2023-04-16T23:24:32.854Z,96244.14
2023-04-16T23:26:59.516Z,96242.45
2023-04-16T23:29:26.177Z,96242.39
2023-04-16T23:31:53.019Z,96238.36
2023-04-16T23:34:19.844Z,96234.80
2023-04-16T23:36:46.576Z,96232.93
2023-04-16T23:39:13.398Z,96229.94
2023-04-16T23:41:40.262Z,96229.03
2023-04-16T23:44:06.907Z,96228.08
2023-04-16T23:46:33.802Z,96225.21
2023-04-16T23:49:00.998Z,96227.89
2023-04-16T23:51:27.946Z,96227.84
2023-04-16T23:53:54.687Z,96227.04
2023-04-16T23:56:21.627Z,96226.95
2023-04-16T23:58:48.483Z,96224.48
